Aviation Digital Data Service (ADDS)

Output produced by TAFs form (1739 UTC 22 July 2014)
found at http://aviationweather.gov/adds/tafs/
 
KHOB 221727Z 2218/2318 11011G18KT P6SM SCT100 BKN150 BKN200 
     FM230100 09006KT P6SM SCT250